Other Surface Observations
Issued by NWS Great Falls, MT

Home | Current Version | Previous Version | Text Only | Print | Product List | Glossary On
Versions: 1 2 3 4 5 6 7 8 9 10 11 12 13 14 15 16 17 18 19 20 21 22 23 24 25 26 27 28 29 30 31 32 33 34 35 36 37 38 39 40 41 42 43 44 45 46 47 48 49 50
795
SXUS55 KTFX 192208
OSOTFX

AREA AWOS OBSERVATIONS
NATIONAL WEATHER SERVICE GREAT FALLS MT
0306 PM MST Fri Jan 19 2018

METAR K7S1 192155Z AUTO 35000KT 40SM 01/M04 A2978 RMK A01 T00051044
METAR K7S1 192055Z AUTO 32000KT 40SM 01/M04 A2977 RMK A01 T00111038
METAR K97M 192155Z AUTO 22005KT 40SM 02/M01 A2968 RMK A01 T00161011
METAR K9S2 192155Z AUTO 24003KT 40SM 01/M07 A2961 RMK A01 T00111066
METAR K9S5 192155Z AUTO 20002KT 40SM 02/M01 A2979 RMK A01 T00161005
METAR KS01 192155Z AUTO 22019KT 254 SM 02/M03 A2970 RMK A01 T00161027
METAR KS34 192155Z AUTO 21007KT 40SM 04/M05 A2986 RMK A01 T00441050
METAR KS34 192055Z AUTO 20012KT 40SM 04/M04 A2985 RMK A01 T00441038
METAR KTHM 192055Z AUTO 28005KT 40SM 04/00 A2990 RMK A01 T00380000



USA.gov is the U.S. government's official web portal to all federal, state and local government web resources and services.